KPTT

Details ICAO KPTT
Name PRATT INDUSTRIAL
Region United States
Timezone America/Chicago (UTC-6.0)
Plans Departing 0
Arriving 4
Stats Elevation 1,952 ft / 595 m (AMSL)
Location 37.701613° -98.746868°
Runways 1
Magnetic Variation 4.508° E
Sunrise 2017-12-15 13:44:33 UTC / 2017-12-15 07:44:33 Local
Sunset 2017-12-15 23:18:47 UTC / 2017-12-15 17:18:47 Local
Advertisement - Login to hide

Runways

ID Width Length Bearing (true) Bearing (mag) Surface Threshold Offset Overrun Length
17 100 ft / 30 m 5,511 ft / 1,680 m 180.11° 175.60° Asphalt 0 ft / 0 m 0 ft / 0 m
35 100 ft / 30 m 5,511 ft / 1,680 m 0.11° 355.60° Asphalt 0 ft / 0 m 0 ft / 0 m

Map

Weather


0- 5 10 15 20 25 30 35+ Temperature / ° C

Clouds and Precipitation
Forecast for 2017-12-15 18:00 UTC. Updated an hour ago

Ground ~20,000 ft ~40,000 ft Winds

METAR

KPTT 151415Z AUTO 26007KT 10SM CLR M06/M09 A3020 RMK AO2 T10581088

TAF

Not found

Frequencies

Recorded 118.72 MHz AWOS 3
Unicom 122.80 MHz CTAF/UNICOM
Warning: Do not use this data for real-world aviation or navigation. No guarantee of current accuracy is given.